Time;durP1;ratioP1;P1;durP2;ratioP2;P2;SDS_P1;SDS_P2;PMS_P1;PMS_P2;Temp;Humidity;BMP_temperature;BMP_pressure;BME280_temperature;BME280_humidity;BME280_pressure;Samples;Min_cycle;Max_cycle;Signal;HPM_P1;HPM_P2
2023/04/04 00:01:02;;;;;;;1999.90;999.90;;;3.60;99.90;;;;;;5053812;28;20029;-69
2023/04/04 00:03:28;;;;;;;1999.90;999.90;;;3.70;99.90;;;;;;5036064;28;20029;-69
2023/04/04 00:05:53;;;;;;;1999.90;999.90;;;3.70;99.90;;;;;;5033869;28;20030;-75
2023/04/04 00:08:22;;;;;;;1999.90;999.90;;;3.70;99.90;;;;;;5048582;28;20029;-69
2023/04/04 00:10:48;;;;;;;1999.90;999.90;;;3.60;99.90;;;;;;5053949;28;20074;-75
2023/04/04 00:13:14;;;;;;;1999.90;999.90;;;3.70;99.90;;;;;;5053639;28;20480;-75
2023/04/04 00:15:40;;;;;;;1999.90;999.90;;;3.70;99.90;;;;;;5053472;28;20035;-69
2023/04/04 00:18:06;;;;;;;1999.90;999.90;;;3.70;99.90;;;;;;5053574;28;20507;-75
2023/04/04 00:20:31;;;;;;;1999.90;999.90;;;3.70;99.90;;;;;;5053988;28;20021;-75
2023/04/04 00:22:57;;;;;;;1999.90;999.90;;;3.70;99.90;;;;;;5052684;28;20032;-75
2023/04/04 00:25:23;;;;;;;1999.90;999.90;;;3.70;99.90;;;;;;5053393;28;20017;-69
2023/04/04 00:27:49;;;;;;;1999.90;999.90;;;3.70;99.90;;;;;;5053262;28;20108;-69
2023/04/04 00:30:15;;;;;;;1999.90;999.90;;;3.60;99.90;;;;;;5053565;28;20370;-75
2023/04/04 00:32:40;;;;;;;1999.90;999.90;;;3.70;99.90;;;;;;5053667;28;20428;-69
2023/04/04 00:35:06;;;;;;;1999.90;999.90;;;3.60;99.90;;;;;;5053228;28;20109;-69
2023/04/04 00:37:32;;;;;;;1999.90;999.90;;;3.70;99.90;;;;;;5053338;28;20029;-75
2023/04/04 00:39:58;;;;;;;1999.90;999.90;;;3.70;99.90;;;;;;5052839;28;20029;-74
2023/04/04 00:42:24;;;;;;;1999.90;999.90;;;3.70;99.90;;;;;;5052905;28;20083;-75
2023/04/04 00:44:53;;;;;;;1999.90;999.90;;;3.70;99.90;;;;;;5048256;28;20017;-75
2023/04/04 00:47:21;;;;;;;1999.90;999.90;;;3.70;99.90;;;;;;5053361;28;20035;-69
2023/04/04 00:49:47;;;;;;;1999.90;999.90;;;3.70;99.90;;;;;;5052514;28;20541;-69
2023/04/04 00:52:13;;;;;;;1999.90;999.90;;;3.70;99.90;;;;;;5052415;28;20028;-69
2023/04/04 00:54:39;;;;;;;1999.90;999.90;;;3.70;99.90;;;;;;5052910;28;20025;-70
2023/04/04 00:57:07;;;;;;;1999.90;999.90;;;3.70;99.90;;;;;;5053137;28;20033;-69
2023/04/04 00:59:33;;;;;;;1999.90;999.90;;;3.70;99.90;;;;;;5053085;28;20476;-69
2023/04/04 01:01:59;;;;;;;1999.90;999.90;;;3.70;99.90;;;;;;5047134;28;20032;-74
2023/04/04 01:04:28;;;;;;;1999.90;999.90;;;3.70;99.90;;;;;;5032960;28;20026;-69
2023/04/04 01:06:54;;;;;;;1999.90;999.90;;;3.60;99.90;;;;;;5036253;28;20024;-69
2023/04/04 01:09:20;;;;;;;1999.90;999.90;;;3.60;99.90;;;;;;5052714;28;20039;-69
2023/04/04 01:11:46;;;;;;;1999.90;999.90;;;3.60;99.90;;;;;;5052501;28;20155;-69
2023/04/04 01:14:12;;;;;;;1999.90;999.90;;;3.60;99.90;;;;;;5052294;28;20548;-75
2023/04/04 01:16:38;;;;;;;1999.90;999.90;;;3.60;99.90;;;;;;5052683;28;20101;-75
2023/04/04 01:19:08;;;;;;;1999.90;999.90;;;3.60;99.90;;;;;;5052021;28;20032;-69
2023/04/04 01:21:35;;;;;;;1999.90;999.90;;;3.60;99.90;;;;;;5052736;28;20025;-75
2023/04/04 01:24:03;;;;;;;1999.90;999.90;;;3.60;99.90;;;;;;5052572;28;20472;-70
2023/04/04 01:26:29;;;;;;;1999.90;999.90;;;3.60;99.90;;;;;;5052661;28;20025;-69
2023/04/04 01:28:56;;;;;;;1999.90;999.90;;;3.50;99.90;;;;;;5051130;28;20104;-69
2023/04/04 01:31:26;;;;;;;1999.90;999.90;;;3.50;99.90;;;;;;5052669;28;20029;-69
2023/04/04 01:34:10;;;;;;;1999.90;999.90;;;3.50;99.90;;;;;;5052910;28;20017;-69
2023/04/04 01:36:48;;;;;;;1999.90;999.90;;;3.40;99.90;;;;;;5052956;28;20032;-69
2023/04/04 01:39:17;;;;;;;1999.90;999.90;;;3.30;99.90;;;;;;5052347;28;20079;-69
2023/04/04 01:41:46;;;;;;;1999.90;999.90;;;3.30;99.90;;;;;;5052304;28;20025;-75
2023/04/04 01:44:14;;;;;;;1999.90;999.90;;;3.20;99.90;;;;;;5052434;28;20013;-69
2023/04/04 01:46:40;;;;;;;1999.90;999.90;;;3.20;99.90;;;;;;5052731;28;20116;-74
2023/04/04 01:49:06;;;;;;;1999.90;999.90;;;3.10;99.90;;;;;;5052098;28;20364;-69
2023/04/04 01:51:32;;;;;;;1999.90;999.90;;;3.10;99.90;;;;;;5051778;28;20025;-69
2023/04/04 01:53:58;;;;;;;1999.90;999.90;;;3.00;99.90;;;;;;5052227;28;20017;-69
2023/04/04 01:56:23;;;;;;;1999.90;999.90;;;3.10;99.90;;;;;;5052401;28;20044;-69
2023/04/04 01:58:49;;;;;;;1999.90;999.90;;;3.10;99.90;;;;;;5052537;28;20079;-69
2023/04/04 02:01:15;;;;;;;1999.90;999.90;;;3.10;99.90;;;;;;5052365;28;20052;-75
2023/04/04 02:03:41;;;;;;;1999.90;999.90;;;3.20;99.90;;;;;;5032786;28;20021;-69
2023/04/04 02:06:07;;;;;;;1999.90;999.90;;;3.20;99.90;;;;;;5032163;28;20503;-75
2023/04/04 02:08:33;;;;;;;1999.90;999.90;;;3.30;99.90;;;;;;5048923;28;20017;-69
2023/04/04 02:10:59;;;;;;;1999.90;999.90;;;3.20;99.90;;;;;;5052373;28;20036;-69
2023/04/04 02:13:25;;;;;;;1999.90;999.90;;;3.20;99.90;;;;;;5051904;28;20338;-69
2023/04/04 02:15:51;;;;;;;1999.90;999.90;;;3.20;99.90;;;;;;5051687;28;20470;-69
2023/04/04 02:18:17;;;;;;;1999.90;999.90;;;3.20;99.90;;;;;;5052106;28;20028;-69
2023/04/04 02:20:42;;;;;;;1999.90;999.90;;;3.20;99.90;;;;;;5052289;28;20094;-75
2023/04/04 02:23:08;;;;;;;1999.90;999.90;;;3.10;99.90;;;;;;5052214;28;20056;-69
2023/04/04 02:25:34;;;;;;;1999.90;999.90;;;3.10;99.90;;;;;;5055754;28;20052;-70
2023/04/04 02:28:00;;;;;;;1999.90;999.90;;;3.10;99.90;;;;;;5055479;28;20025;-69
2023/04/04 02:30:26;;;;;;;1999.90;999.90;;;3.10;99.90;;;;;;5055537;28;20029;-69
2023/04/04 02:32:51;;;;;;;1999.90;999.90;;;3.00;99.90;;;;;;5055928;28;20066;-74
2023/04/04 02:35:17;;;;;;;1999.90;999.90;;;3.10;99.90;;;;;;5055819;28;20029;-74
2023/04/04 02:37:46;;;;;;;1999.90;999.90;;;3.00;99.90;;;;;;5055682;28;20031;-69
2023/04/04 02:40:12;;;;;;;1999.90;999.90;;;3.00;99.90;;;;;;5054023;28;20040;-70
2023/04/04 02:42:42;;;;;;;1999.90;999.90;;;2.90;99.90;;;;;;5055303;28;20074;-69
2023/04/04 02:45:09;;;;;;;1999.90;999.90;;;3.00;99.90;;;;;;5055276;28;20216;-69
2023/04/04 02:47:35;;;;;;;1999.90;999.90;;;2.90;99.90;;;;;;5053864;28;20021;-69
2023/04/04 02:50:00;;;;;;;1999.90;999.90;;;3.00;99.90;;;;;;5055344;28;20102;-69
2023/04/04 02:52:26;;;;;;;1999.90;999.90;;;3.00;99.90;;;;;;5050305;28;20033;-69
2023/04/04 02:54:52;;;;;;;1999.90;999.90;;;3.00;99.90;;;;;;5054961;28;20040;-69
2023/04/04 02:57:17;;;;;;;1999.90;999.90;;;3.00;99.90;;;;;;5055107;28;20427;-69
2023/04/04 02:59:43;;;;;;;1999.90;999.90;;;3.00;99.90;;;;;;5055445;28;20150;-75
2023/04/04 03:02:09;;;;;;;1999.90;999.90;;;2.90;99.90;;;;;;5050015;28;20532;-69
2023/04/04 03:04:35;;;;;;;1999.90;999.90;;;2.90;99.90;;;;;;5035180;28;20018;-69
2023/04/04 03:07:02;;;;;;;1999.90;999.90;;;2.90;99.90;;;;;;5039041;28;20017;-69
2023/04/04 03:09:28;;;;;;;1999.90;999.90;;;2.80;99.90;;;;;;5054854;28;20075;-75
2023/04/04 03:11:54;;;;;;;1999.90;999.90;;;2.90;99.90;;;;;;5054674;28;20032;-69
2023/04/04 03:14:20;;;;;;;1999.90;999.90;;;2.80;99.90;;;;;;5055117;28;20426;-69
2023/04/04 03:16:48;;;;;;;1999.90;999.90;;;2.80;99.90;;;;;;5054764;28;20071;-69
2023/04/04 03:19:14;;;;;;;1999.90;999.90;;;2.80;99.90;;;;;;5054672;28;20029;-74
2023/04/04 03:21:39;;;;;;;1999.90;999.90;;;2.80;99.90;;;;;;5054122;28;20035;-75
2023/04/04 03:24:05;;;;;;;1999.90;999.90;;;2.70;99.90;;;;;;5054659;28;20424;-74
2023/04/04 03:26:31;;;;;;;1999.90;999.90;;;2.70;99.90;;;;;;5054638;28;20090;-75
2023/04/04 03:28:56;;;;;;;1999.90;999.90;;;2.60;99.90;;;;;;5054709;28;20021;-68
2023/04/04 03:31:22;;;;;;;1999.90;999.90;;;2.60;99.90;;;;;;5049486;28;20099;-75
2023/04/04 03:33:48;;;;;;;1999.90;999.90;;;2.60;99.90;;;;;;5054396;28;20056;-69
2023/04/04 03:36:13;;;;;;;1999.90;999.90;;;2.50;99.90;;;;;;5053630;28;20545;-69
2023/04/04 03:38:39;;;;;;;1999.90;999.90;;;2.60;99.90;;;;;;5054311;28;20086;-69
2023/04/04 03:41:06;;;;;;;1999.90;999.90;;;2.50;99.90;;;;;;5054211;28;20078;-69
2023/04/04 03:43:32;;;;;;;1999.90;999.90;;;2.50;99.90;;;;;;5052712;28;20021;-72
2023/04/04 03:46:03;;;;;;;1999.90;999.90;;;2.50;99.90;;;;;;5051104;28;20051;-69
2023/04/04 03:48:28;;;;;;;1999.90;999.90;;;2.50;99.90;;;;;;5053962;28;20102;-69
2023/04/04 03:50:56;;;;;;;1999.90;999.90;;;2.50;99.90;;;;;;5054343;28;20024;-74
2023/04/04 03:53:25;;;;;;;1999.90;999.90;;;2.50;99.90;;;;;;5053563;28;20066;-75
2023/04/04 03:55:52;;;;;;;1999.90;999.90;;;2.50;99.90;;;;;;5053988;28;20025;-69
2023/04/04 03:58:18;;;;;;;1999.90;999.90;;;2.50;99.90;;;;;;5054168;28;20032;-69
2023/04/04 04:00:44;;;;;;;1999.90;999.90;;;2.40;99.90;;;;;;5054048;28;20025;-69
2023/04/04 04:03:09;;;;;;;1999.90;999.90;;;2.40;99.90;;;;;;5053714;28;20412;-75
2023/04/04 04:05:35;;;;;;;1999.90;999.90;;;2.40;99.90;;;;;;5053886;28;20104;-74
2023/04/04 04:08:01;;;;;;;1999.90;999.90;;;2.40;99.90;;;;;;5053669;28;20025;-69
2023/04/04 04:10:26;;;;;;;1999.90;999.90;;;2.30;99.90;;;;;;5053641;28;20025;-69
2023/04/04 04:12:52;;;;;;;1999.90;999.90;;;2.30;99.90;;;;;;5053677;28;20029;-69
2023/04/04 04:15:18;;;;;;;1999.90;999.90;;;2.30;99.90;;;;;;5053578;28;20028;-69
2023/04/04 04:17:43;;;;;;;1999.90;999.90;;;2.30;99.90;;;;;;5052768;28;20021;-74
2023/04/04 04:20:10;;;;;;;1999.90;999.90;;;2.30;99.90;;;;;;5053882;28;20029;-75
2023/04/04 04:22:36;;;;;;;1999.90;999.90;;;2.40;99.90;;;;;;5053210;28;20035;-74
2023/04/04 04:25:02;;;;;;;1999.90;999.90;;;2.30;99.90;;;;;;5053543;28;20043;-69
2023/04/04 04:27:29;;;;;;;1999.90;999.90;;;2.30;99.90;;;;;;5053494;28;20028;-69
2023/04/04 04:29:55;;;;;;;1999.90;999.90;;;2.30;99.90;;;;;;5053420;28;20029;-69
2023/04/04 04:32:20;;;;;;;1999.90;999.90;;;2.30;99.90;;;;;;5053252;28;20029;-76
2023/04/04 04:34:46;;;;;;;1999.90;999.90;;;2.30;99.90;;;;;;5053674;28;20021;-69
2023/04/04 04:37:12;;;;;;;1999.90;999.90;;;2.30;99.90;;;;;;5053497;28;20400;-69
2023/04/04 04:39:38;;;;;;;1999.90;999.90;;;2.30;99.90;;;;;;5053071;28;20111;-74
2023/04/04 04:42:03;;;;;;;1999.90;999.90;;;2.30;99.90;;;;;;5052700;28;20039;-74
2023/04/04 04:44:29;;;;;;;1999.90;999.90;;;2.30;99.90;;;;;;5048319;28;20036;-74
2023/04/04 04:46:55;;;;;;;1999.90;999.90;;;2.20;99.90;;;;;;5052456;28;20074;-69
2023/04/04 04:49:21;;;;;;;1999.90;999.90;;;2.20;99.90;;;;;;5052972;28;20550;-75
2023/04/04 04:51:48;;;;;;;1999.90;999.90;;;2.20;99.90;;;;;;5053077;28;20037;-69
2023/04/04 04:54:13;;;;;;;1999.90;999.90;;;2.20;99.90;;;;;;5052359;28;20021;-69
2023/04/04 04:56:39;;;;;;;1999.90;999.90;;;2.10;99.90;;;;;;5052972;28;20025;-75
2023/04/04 04:59:06;;;;;;;1999.90;999.90;;;2.10;99.90;;;;;;5050492;28;20415;-74
2023/04/04 05:01:31;;;;;;;1999.90;999.90;;;2.10;99.90;;;;;;5051359;28;20033;-74
2023/04/04 05:03:57;;;;;;;1999.90;999.90;;;2.00;99.90;;;;;;5032770;28;20020;-69
2023/04/04 05:06:23;;;;;;;1999.90;999.90;;;2.00;99.90;;;;;;5032853;28;20075;-75
2023/04/04 05:08:51;;;;;;;1999.90;999.90;;;2.00;99.90;;;;;;5051488;28;20410;-69
2023/04/04 05:11:17;;;;;;;1999.90;999.90;;;1.90;99.90;;;;;;5052650;28;20500;-69
2023/04/04 05:13:43;;;;;;;1999.90;999.90;;;1.90;99.90;;;;;;5052631;28;20024;-75
2023/04/04 05:16:09;;;;;;;1999.90;999.90;;;1.80;99.90;;;;;;5052840;28;20025;-69
2023/04/04 05:18:35;;;;;;;1999.90;999.90;;;1.80;99.90;;;;;;5052724;28;20082;-74
2023/04/04 05:21:01;;;;;;;1999.90;999.90;;;1.80;99.90;;;;;;5052130;28;20029;-75
2023/04/04 05:23:27;;;;;;;1999.90;999.90;;;1.80;99.90;;;;;;5052035;28;20408;-69
2023/04/04 05:25:52;;;;;;;1999.90;999.90;;;1.80;99.90;;;;;;5052263;28;20388;-69
2023/04/04 05:28:22;;;;;;;1999.90;999.90;;;1.80;99.90;;;;;;5052080;28;20070;-74
2023/04/04 05:30:48;;;;;;;1999.90;999.90;;;1.80;99.90;;;;;;5051127;28;20096;-74
2023/04/04 05:33:13;;;;;;;1999.90;999.90;;;1.90;99.90;;;;;;5046602;28;20032;-75
2023/04/04 05:35:40;;;;;;;1999.90;999.90;;;1.90;99.90;;;;;;5039881;28;20100;-69
2023/04/04 05:38:06;;;;;;;1999.90;999.90;;;1.80;99.90;;;;;;5033413;28;20094;-69
2023/04/04 05:40:32;;;;;;;1999.90;999.90;;;1.90;99.90;;;;;;5043069;28;20064;-76
2023/04/04 05:42:59;;;;;;;1999.90;999.90;;;1.90;99.90;;;;;;5040258;28;20167;-74
2023/04/04 05:45:25;;;;;;;1999.90;999.90;;;1.90;99.90;;;;;;5047374;28;20025;-75
2023/04/04 05:47:51;;;;;;;1999.90;999.90;;;1.90;99.90;;;;;;5051981;28;20380;-69
2023/04/04 05:50:17;;;;;;;1999.90;999.90;;;2.00;99.90;;;;;;5051484;28;20052;-68
2023/04/04 05:52:42;;;;;;;1999.90;999.90;;;1.90;99.90;;;;;;5051255;28;20033;-75
2023/04/04 05:55:08;;;;;;;1999.90;999.90;;;2.00;99.90;;;;;;5050853;28;20086;-69
2023/04/04 05:57:34;;;;;;;1999.90;999.90;;;2.00;99.90;;;;;;5051953;28;20391;-75
2023/04/04 05:59:59;;;;;;;1999.90;999.90;;;2.10;99.90;;;;;;5053458;28;20036;-69
2023/04/04 06:02:25;;;;;;;1999.90;999.90;;;2.10;99.90;;;;;;5045209;28;20052;-70
2023/04/04 06:04:51;;;;;;;1999.90;999.90;;;2.20;99.90;;;;;;5055277;28;20021;-69
2023/04/04 06:07:17;;;;;;;1999.90;999.90;;;2.30;99.90;;;;;;5047269;28;20033;-69
2023/04/04 06:09:43;;;;;;;1999.90;999.90;;;2.30;99.90;;;;;;5052582;28;20021;-75
2023/04/04 06:12:08;;;;;;;1999.90;999.90;;;2.30;99.90;;;;;;5061784;28;20029;-74
2023/04/04 06:14:35;;;;;;;1999.90;999.90;;;2.40;99.90;;;;;;5049783;28;20112;-70
2023/04/04 06:17:01;;;;;;;1999.90;999.90;;;2.50;99.90;;;;;;5049506;28;20120;-70
2023/04/04 06:19:27;;;;;;;1999.90;999.90;;;2.60;99.90;;;;;;5051151;28;20486;-75
2023/04/04 06:21:52;;;;;;;1999.90;999.90;;;2.60;99.90;;;;;;5051741;28;20061;-75
2023/04/04 06:24:18;;;;;;;1999.90;999.90;;;2.60;99.90;;;;;;5052149;28;20028;-75
2023/04/04 06:26:44;;;;;;;1999.90;999.90;;;2.70;99.90;;;;;;5070449;28;20032;-71
2023/04/04 06:29:10;;;;;;;1999.90;999.90;;;2.70;99.90;;;;;;5045363;28;20036;-69
2023/04/04 06:31:35;;;;;;;1999.90;999.90;;;2.70;99.90;;;;;;5047362;28;20557;-70
2023/04/04 06:34:01;;;;;;;1999.90;999.90;;;2.70;99.90;;;;;;5051618;28;20025;-75
2023/04/04 06:36:27;;;;;;;1999.90;999.90;;;2.70;99.90;;;;;;5052000;28;20041;-75
2023/04/04 06:38:52;;;;;;;1999.90;999.90;;;2.70;99.90;;;;;;5041758;28;20033;-69
2023/04/04 06:41:18;;;;;;;1999.90;999.90;;;2.80;99.90;;;;;;5055421;28;20430;-70
2023/04/04 06:43:45;;;;;;;1999.90;999.90;;;2.80;99.90;;;;;;5048225;28;20047;-69
2023/04/04 06:46:11;;;;;;;1999.90;999.90;;;2.90;99.90;;;;;;5044703;28;20029;-70
2023/04/04 06:48:37;;;;;;;1999.90;999.90;;;3.00;99.90;;;;;;5050127;28;20053;-75
2023/04/04 06:51:06;;;;;;;1999.90;999.90;;;3.00;99.90;;;;;;5046293;28;20036;-70
2023/04/04 06:53:33;;;;;;;1999.90;999.90;;;3.10;99.90;;;;;;5047023;28;20025;-70
2023/04/04 06:55:59;;;;;;;1999.90;999.90;;;3.20;99.90;;;;;;5040469;28;20032;-75
2023/04/04 06:58:25;;;;;;;1999.90;999.90;;;3.20;99.90;;;;;;5058666;28;20426;-75
2023/04/04 07:00:51;;;;;;;1999.90;999.90;;;3.30;99.90;;;;;;5036870;28;20037;-75
2023/04/04 07:03:16;;;;;;;1999.90;999.90;;;3.40;99.90;;;;;;5038997;28;20037;-70
2023/04/04 07:05:42;;;;;;;1999.90;999.90;;;3.50;99.90;;;;;;5046620;28;20388;-70
2023/04/04 07:08:08;;;;;;;1999.90;999.90;;;3.60;99.90;;;;;;5049179;28;20570;-70
2023/04/04 07:10:34;;;;;;;1999.90;999.90;;;3.70;99.90;;;;;;5044570;28;20036;-74
2023/04/04 07:13:00;;;;;;;1999.90;999.90;;;3.80;99.90;;;;;;5060178;28;20032;-75
2023/04/04 07:15:26;;;;;;;1999.90;999.90;;;3.90;99.90;;;;;;5050288;28;20162;-75
2023/04/04 07:17:52;;;;;;;1999.90;999.90;;;3.90;99.90;;;;;;5055218;28;20427;-71
2023/04/04 07:20:18;;;;;;;1999.90;999.90;;;3.90;99.90;;;;;;5045200;28;20032;-74
2023/04/04 07:22:44;;;;;;;1999.90;999.90;;;4.00;99.90;;;;;;5043428;28;20033;-71
2023/04/04 07:25:11;;;;;;;1999.90;999.90;;;4.10;99.90;;;;;;5050436;28;20373;-71
2023/04/04 07:27:36;;;;;;;1999.90;999.90;;;4.20;99.90;;;;;;5044573;28;20016;-71
2023/04/04 07:30:03;;;;;;;1999.90;999.90;;;4.40;99.90;;;;;;5045831;28;20074;-70
2023/04/04 07:32:29;;;;;;;1999.90;999.90;;;4.40;99.90;;;;;;5049412;28;20455;-71
2023/04/04 07:34:55;;;;;;;1999.90;999.90;;;4.50;99.90;;;;;;5065706;28;20031;-71
2023/04/04 07:37:21;;;;;;;1999.90;999.90;;;4.70;99.90;;;;;;5062869;28;20041;-70
2023/04/04 07:39:48;;;;;;;1999.90;999.90;;;4.80;99.90;;;;;;5039009;28;20104;-76
2023/04/04 07:42:15;;;;;;;1999.90;999.90;;;4.90;99.90;;;;;;5040936;28;20074;-76
2023/04/04 07:44:40;;;;;;;1999.90;999.90;;;5.10;99.90;;;;;;5048849;28;20506;-71
2023/04/04 07:47:07;;;;;;;1999.90;999.90;;;5.40;99.90;;;;;;5048497;28;20029;-71
2023/04/04 07:49:32;;;;;;;1999.90;999.90;;;5.60;99.90;;;;;;5053292;28;20040;-77
2023/04/04 07:51:58;;;;;;;1999.90;999.90;;;6.60;99.90;;;;;;5049825;28;20073;-76
2023/04/04 07:54:24;;;;;;;1999.90;999.90;;;9.60;99.90;;;;;;5049342;28;20086;-77
2023/04/04 07:56:50;;;;;;;1999.90;999.90;;;11.60;99.90;;;;;;5042813;28;20155;-71
2023/04/04 07:59:16;;;;;;;1999.90;999.90;;;13.50;99.90;;;;;;5064250;28;20103;-71
2023/04/04 08:01:41;;;;;;;1999.90;999.90;;;13.80;99.90;;;;;;5058231;28;20618;-72
2023/04/04 08:04:07;;;;;;;1999.90;999.90;;;14.30;99.90;;;;;;5051114;28;20871;-71
2023/04/04 08:06:33;;;;;;;1999.90;999.90;;;15.30;99.90;;;;;;5048564;28;20030;-72
2023/04/04 08:08:59;;;;;;;1999.90;999.90;;;15.40;99.90;;;;;;5046679;28;20484;-77
2023/04/04 08:11:25;;;;;;;1999.90;999.90;;;15.70;99.90;;;;;;5058514;28;20033;-72
2023/04/04 08:13:50;;;;;;;1999.90;999.90;;;16.20;99.90;;;;;;5044861;28;20040;-77
2023/04/04 08:16:16;;;;;;;1999.90;999.90;;;16.50;99.50;;;;;;5050962;28;20033;-72
2023/04/04 08:18:42;;;;;;;1999.90;999.90;;;16.40;98.80;;;;;;5051159;28;20132;-77
2023/04/04 08:21:07;;;;;;;1999.90;999.90;;;16.80;99.00;;;;;;5050336;28;20123;-72
2023/04/04 08:23:34;;;;;;;1999.90;999.90;;;17.00;97.40;;;;;;5050562;28;20025;-72
2023/04/04 08:25:59;;;;;;;1999.90;999.90;;;17.20;96.30;;;;;;5048739;28;20032;-71
2023/04/04 08:28:26;;;;;;;1999.90;999.90;;;16.40;97.40;;;;;;5046623;28;20029;-77
2023/04/04 08:30:53;;;;;;;1999.90;999.90;;;16.90;97.60;;;;;;5047876;28;20499;-77
2023/04/04 08:33:25;;;;;;;1999.90;999.90;;;17.80;96.50;;;;;;5044784;28;20048;-77
2023/04/04 08:35:50;;;;;;;1999.90;999.90;;;17.80;97.00;;;;;;5041818;28;20055;-72
2023/04/04 08:38:16;;;;;;;1999.90;999.90;;;18.00;95.50;;;;;;5048154;28;20751;-72
2023/04/04 08:40:46;;;;;;;1999.90;999.90;;;18.10;94.80;;;;;;5049535;28;20041;-71
2023/04/04 08:43:14;;;;;;;1999.90;999.90;;;18.40;95.10;;;;;;5050786;28;20025;-77
2023/04/04 08:45:42;;;;;;;1999.90;999.90;;;17.20;95.20;;;;;;5050617;28;20421;-77
2023/04/04 08:48:11;;;;;;;1999.90;999.90;;;15.60;99.20;;;;;;5047893;28;20156;-77
2023/04/04 08:50:39;;;;;;;1999.90;999.90;;;16.20;98.10;;;;;;5037917;28;20033;-72
2023/04/04 08:53:06;;;;;;;1999.90;999.90;;;17.60;96.90;;;;;;5063076;28;20016;-72
2023/04/04 08:55:32;;;;;;;1999.90;999.90;;;18.80;94.90;;;;;;5046076;28;20170;-78
2023/04/04 08:57:58;;;;;;;1999.90;999.90;;;19.00;94.30;;;;;;5050397;28;20108;-72
2023/04/04 09:00:24;;;;;;;1999.90;999.90;;;19.30;94.30;;;;;;5046598;28;20025;-78
2023/04/04 09:03:12;;;;;;;1999.90;999.90;;;18.80;93.00;;;;;;5036923;28;20480;-72
2023/04/04 09:05:38;;;;;;;1999.90;999.90;;;18.90;93.70;;;;;;5032997;28;20028;-73
2023/04/04 09:08:06;;;;;;;1999.90;999.90;;;18.60;93.90;;;;;;5049275;28;20025;-72
2023/04/04 09:10:32;;;;;;;1999.90;999.90;;;19.30;93.50;;;;;;5049507;28;20032;-78
2023/04/04 09:12:58;;;;;;;1999.90;999.90;;;19.00;93.00;;;;;;5044019;28;20021;-78
2023/04/04 09:15:24;;;;;;;1999.90;999.90;;;19.00;93.00;;;;;;5034790;28;20108;-72
2023/04/04 09:17:49;;;;;;;1999.90;999.90;;;19.10;93.70;;;;;;5034994;28;20301;-73
2023/04/04 09:20:37;;;;;;;1999.90;999.90;;;19.70;92.60;;;;;;5046853;28;20017;-78
2023/04/04 09:23:06;;;;;;;1999.90;999.90;;;19.90;92.70;;;;;;5062827;28;20029;-72
2023/04/04 09:25:32;;;;;;;1999.90;999.90;;;20.90;91.90;;;;;;5048639;28;20082;-78
2023/04/04 09:28:00;;;;;;;1999.90;999.90;;;21.00;91.40;;;;;;5047201;28;20029;-73
2023/04/04 09:30:26;;;;;;;1999.90;999.90;;;20.30;91.20;;;;;;5049303;28;20052;-72
2023/04/04 09:32:52;;;;;;;1999.90;999.90;;;19.30;92.20;;;;;;5039845;28;20059;-76
2023/04/04 09:35:19;;;;;;;1999.90;999.90;;;19.30;92.60;;;;;;5035247;28;20571;-73
2023/04/04 09:37:45;;;;;;;1999.90;999.90;;;20.20;91.80;;;;;;5034698;28;20029;-78
2023/04/04 09:40:12;;;;;;;1999.90;999.90;;;19.80;91.40;;;;;;5044663;28;20040;-77
2023/04/04 09:42:38;;;;;;;1999.90;999.90;;;19.60;92.40;;;;;;5042499;28;20025;-73
2023/04/04 09:45:04;;;;;;;1999.90;999.90;;;19.00;91.80;;;;;;5035962;28;20028;-73
2023/04/04 09:47:32;;;;;;;1999.90;999.90;;;19.50;92.00;;;;;;5051739;28;20025;-78
2023/04/04 09:50:02;;;;;;;1999.90;999.90;;;19.50;92.10;;;;;;5052349;28;20136;-77
2023/04/04 09:52:34;;;;;;;1999.90;999.90;;;19.50;91.00;;;;;;5053008;28;20029;-72
2023/04/04 09:55:01;;;;;;;1999.90;999.90;;;19.50;91.70;;;;;;5052998;28;20035;-72
2023/04/04 09:57:34;;;;;;;1999.90;999.90;;;19.70;92.60;;;;;;5044847;28;20040;-72
2023/04/04 10:00:03;;;;;;;1999.90;999.90;;;19.50;91.50;;;;;;5052379;28;20029;-72
2023/04/04 10:02:32;;;;;;;1999.90;999.90;;;20.20;91.10;;;;;;5043201;28;20033;-76
2023/04/04 10:04:58;;;;;;;1999.90;999.90;;;19.10;91.40;;;;;;5032862;28;20431;-78
2023/04/04 10:07:26;;;;;;;1999.90;999.90;;;19.80;91.60;;;;;;5044372;28;20082;-72
2023/04/04 10:09:52;;;;;;;1999.90;999.90;;;18.70;91.40;;;;;;5052435;28;20369;-73
2023/04/04 10:12:24;;;;;;;1999.90;999.90;;;18.50;91.80;;;;;;5045910;28;20766;-78
2023/04/04 10:15:00;;;;;;;1999.90;999.90;;;17.90;93.30;;;;;;5048455;28;20033;-72
2023/04/04 10:17:40;;;;;;;1999.90;999.90;;;16.80;93.60;;;;;;5050077;28;20041;-77
2023/04/04 10:20:11;;;;;;;1999.90;999.90;;;15.90;94.50;;;;;;5038033;28;20072;-72
2023/04/04 10:22:38;;;;;;;1999.90;999.90;;;15.00;95.60;;;;;;5050457;28;20484;-72
2023/04/04 10:25:04;;;;;;;1999.90;999.90;;;14.70;97.30;;;;;;5034341;28;20033;-77
2023/04/04 10:27:31;;;;;;;1999.90;999.90;;;14.60;98.20;;;;;;5043737;28;20044;-77
2023/04/04 10:29:58;;;;;;;1999.90;999.90;;;14.60;98.20;;;;;;5043186;28;20022;-72
2023/04/04 10:32:40;;;;;;;1999.90;999.90;;;14.50;98.90;;;;;;5047371;28;20052;-77
2023/04/04 10:35:09;;;;;;;1999.90;999.90;;;14.20;99.50;;;;;;5051852;28;20488;-71
2023/04/04 10:37:42;;;;;;;1999.90;999.90;;;14.20;99.90;;;;;;5062648;28;20119;-78
2023/04/04 10:40:12;;;;;;;1999.90;999.90;;;14.50;99.90;;;;;;5058399;28;20024;-78
2023/04/04 10:42:41;;;;;;;1999.90;999.90;;;14.50;99.90;;;;;;5051585;28;20033;-77
2023/04/04 10:45:09;;;;;;;1999.90;999.90;;;14.40;98.10;;;;;;5048173;28;20017;-77
2023/04/04 10:47:35;;;;;;;1999.90;999.90;;;14.20;99.10;;;;;;5047037;28;20466;-71
2023/04/04 10:50:06;;;;;;;1999.90;999.90;;;13.80;99.80;;;;;;5044519;28;20080;-77
2023/04/04 10:52:32;;;;;;;1999.90;999.90;;;14.00;99.90;;;;;;5042578;28;20547;-71
2023/04/04 10:55:01;;;;;;;1999.90;999.90;;;14.20;99.30;;;;;;5046669;28;20075;-77
2023/04/04 10:57:29;;;;;;;1999.90;999.90;;;13.90;99.90;;;;;;5058940;28;20101;-74
2023/04/04 11:00:06;;;;;;;1999.90;999.90;;;13.80;99.90;;;;;;5042955;28;20811;-71
2023/04/04 11:02:54;;;;;;;1999.90;999.90;;;14.10;99.90;;;;;;5041393;28;20038;-71
2023/04/04 11:05:22;;;;;;;1999.90;999.90;;;13.90;99.90;;;;;;5045902;28;20522;-76
2023/04/04 11:08:09;;;;;;;1999.90;999.90;;;13.70;99.90;;;;;;5043790;28;20040;-76
2023/04/04 11:10:56;;;;;;;1999.90;999.90;;;13.20;99.90;;;;;;5043909;28;20047;-76
2023/04/04 11:13:28;;;;;;;1999.90;999.90;;;13.40;99.90;;;;;;5053033;28;20492;-77
2023/04/04 11:15:58;;;;;;;1999.90;999.90;;;13.70;99.90;;;;;;5050806;28;20150;-76
2023/04/04 11:18:40;;;;;;;1999.90;999.90;;;13.70;99.90;;;;;;5046508;28;20809;-74
2023/04/04 11:21:07;;;;;;;1999.90;999.90;;;13.70;99.90;;;;;;5044999;28;20475;-74
2023/04/04 11:23:48;;;;;;;1999.90;999.90;;;13.80;99.90;;;;;;5049720;28;20103;-74
2023/04/04 11:26:33;;;;;;;1999.90;999.90;;;14.10;99.90;;;;;;5050961;28;20099;-70
2023/04/04 11:29:00;;;;;;;1999.90;999.90;;;13.60;99.90;;;;;;5047420;28;20025;-76
2023/04/04 11:31:28;;;;;;;1999.90;999.90;;;13.60;99.90;;;;;;5039016;28;20029;-77
2023/04/04 11:34:06;;;;;;;1999.90;999.90;;;14.00;99.90;;;;;;5046000;28;20025;-73
2023/04/04 11:36:38;;;;;;;1999.90;999.90;;;14.30;99.90;;;;;;5040567;28;20519;-76
2023/04/04 11:39:33;;;;;;;1999.90;999.90;;;14.50;99.90;;;;;;5044817;28;20029;-77
2023/04/04 11:42:07;;;;;;;1999.90;999.90;;;14.40;99.90;;;;;;5049898;28;20079;-77
2023/04/04 11:45:03;;;;;;;1999.90;999.90;;;14.20;99.90;;;;;;5050675;28;20040;-76
2023/04/04 11:47:30;;;;;;;1999.90;999.90;;;13.90;99.90;;;;;;5045381;28;20528;-76
2023/04/04 11:49:57;;;;;;;1999.90;999.90;;;13.90;99.90;;;;;;5040708;28;20049;-76
2023/04/04 11:52:24;;;;;;;1999.90;999.90;;;13.90;99.90;;;;;;5049756;28;20041;-71
2023/04/04 11:54:50;;;;;;;1999.90;999.90;;;13.90;99.90;;;;;;5048450;28;20078;-71
2023/04/04 11:57:19;;;;;;;1999.90;999.90;;;13.90;99.90;;;;;;5045501;28;20025;-76
2023/04/04 11:59:50;;;;;;;1999.90;999.90;;;14.10;99.90;;;;;;5043696;28;20037;-78
2023/04/04 12:02:20;;;;;;;1999.90;999.90;;;14.50;99.90;;;;;;5039196;28;20032;-78
2023/04/04 12:04:46;;;;;;;1999.90;999.90;;;14.50;99.90;;;;;;5048575;28;20079;-72
2023/04/04 12:07:14;;;;;;;1999.90;999.90;;;14.50;99.90;;;;;;5049570;28;20032;-72